createdAt,value
2023-04-24T00:02:03.957Z,100650.05
2023-04-24T00:04:32.592Z,100653.58
2023-04-24T00:07:00.640Z,100654.48
2023-04-24T00:09:28.514Z,100649.58
2023-04-24T00:11:56.731Z,100647.81
2023-04-24T00:14:23.928Z,100646.02
2023-04-24T00:16:51.121Z,100649.35
2023-04-24T00:19:21.714Z,100650.95
2023-04-24T00:21:50.600Z,100655.36
2023-04-24T00:24:18.782Z,100655.69
2023-04-24T00:26:45.824Z,100657.63
2023-04-24T00:29:13.891Z,100655.71
2023-04-24T00:31:41.011Z,100655.20
2023-04-24T00:34:08.293Z,100652.60
2023-04-24T00:36:35.852Z,100648.37
2023-04-24T00:39:03.106Z,100651.16
2023-04-24T00:41:30.473Z,100657.31
2023-04-24T00:43:57.624Z,100662.94
2023-04-24T00:46:25.429Z,100663.27
2023-04-24T00:48:54.267Z,100666.37
2023-04-24T00:51:21.619Z,100663.84
2023-04-24T00:53:48.771Z,100663.78
2023-04-24T00:56:16.311Z,100665.51
2023-04-24T00:58:43.990Z,100664.63
2023-04-24T01:01:12.284Z,100663.66
2023-04-24T01:03:39.822Z,100662.83
2023-04-24T01:06:07.690Z,100658.33
2023-04-24T01:08:35.359Z,100657.86
2023-04-24T01:11:04.878Z,100655.81
2023-04-24T01:13:32.631Z,100652.36
2023-04-24T01:16:00.986Z,100654.16
2023-04-24T01:18:28.418Z,100650.64
2023-04-24T01:20:58.186Z,100650.64
2023-04-24T01:23:25.528Z,100650.31
2023-04-24T01:25:52.674Z,100645.03
2023-04-24T01:28:20.335Z,100646.80
2023-04-24T01:30:47.587Z,100648.75
2023-04-24T01:33:14.941Z,100649.64
2023-04-24T01:35:42.213Z,100645.06
2023-04-24T01:38:09.753Z,100646.98
2023-04-24T01:40:37.220Z,100648.41
2023-04-24T01:43:04.256Z,100643.83
2023-04-24T01:45:31.786Z,100637.98
2023-04-24T01:47:59.331Z,100637.59
2023-04-24T01:50:26.623Z,100639.48
2023-04-24T01:52:54.088Z,100638.98
2023-04-24T01:55:21.233Z,100636.34
2023-04-24T01:57:48.504Z,100636.85
2023-04-24T02:00:15.772Z,100636.92
2023-04-24T02:02:45.662Z,100631.02
2023-04-24T02:05:14.862Z,100631.43
2023-04-24T02:07:42.632Z,100629.52
2023-04-24T02:10:10.600Z,100627.59
2023-04-24T02:12:43.362Z,100628.83
2023-04-24T02:15:11.439Z,100630.23
2023-04-24T02:17:38.914Z,100631.98
2023-04-24T02:20:07.712Z,100635.50
2023-04-24T02:22:35.449Z,100636.39
2023-04-24T02:25:02.694Z,100638.88
2023-04-24T02:27:30.869Z,100639.61
2023-04-24T02:29:58.139Z,100636.28
2023-04-24T02:32:25.798Z,100631.54
2023-04-24T02:34:53.059Z,100635.05
2023-04-24T02:37:20.390Z,100631.02
2023-04-24T02:39:47.680Z,100635.42
2023-04-24T02:42:15.915Z,100637.34
2023-04-24T02:44:43.373Z,100635.73
2023-04-24T02:47:10.519Z,100634.80
2023-04-24T02:49:37.771Z,100635.30
2023-04-24T02:52:05.024Z,100636.38
2023-04-24T02:54:32.307Z,100638.55
2023-04-24T02:56:59.540Z,100635.79
2023-04-24T02:59:27.807Z,100635.83
2023-04-24T03:01:55.264Z,100638.34
2023-04-24T03:04:23.198Z,100637.49
2023-04-24T03:06:53.347Z,100635.75
2023-04-24T03:09:24.228Z,100642.82
2023-04-24T03:11:51.438Z,100641.78
2023-04-24T03:14:19.422Z,100639.14
2023-04-24T03:16:46.655Z,100640.89
2023-04-24T03:19:13.841Z,100642.98
2023-04-24T03:21:54.167Z,100649.29
2023-04-24T03:24:21.324Z,100653.65
2023-04-24T03:26:49.905Z,100657.20
2023-04-24T03:29:30.306Z,100657.75
2023-04-24T03:31:58.579Z,100658.98
2023-04-24T03:34:26.403Z,100661.64
2023-04-24T03:36:53.962Z,100657.92
2023-04-24T03:39:22.019Z,100656.67
2023-04-24T03:41:55.208Z,100654.20
2023-04-24T03:44:27.919Z,100658.80
2023-04-24T03:46:55.775Z,100657.19
2023-04-24T03:49:23.948Z,100657.16
2023-04-24T03:51:53.173Z,100659.62
2023-04-24T03:54:23.500Z,100664.01
2023-04-24T03:56:51.651Z,100665.61
2023-04-24T03:59:18.932Z,100664.23
2023-04-24T04:01:49.276Z,100670.42
2023-04-24T04:04:17.971Z,100667.27
2023-04-24T04:06:47.115Z,100667.29
2023-04-24T04:09:14.557Z,100668.89
2023-04-24T04:11:41.890Z,100670.49
2023-04-24T04:14:09.484Z,100671.93
2023-04-24T04:16:40.235Z,100671.94
2023-04-24T04:19:08.065Z,100667.01
2023-04-24T04:21:35.991Z,100663.66
2023-04-24T04:24:14.757Z,100671.23
2023-04-24T04:26:47.743Z,100672.64
2023-04-24T04:29:23.254Z,100671.06
2023-04-24T04:31:51.297Z,100667.91
2023-04-24T04:34:20.150Z,100665.98
2023-04-24T04:36:47.418Z,100666.00
2023-04-24T04:39:35.545Z,100663.38
2023-04-24T04:42:07.318Z,100663.77
2023-04-24T04:44:40.390Z,100659.92
2023-04-24T04:47:09.487Z,100660.47
2023-04-24T04:49:42.047Z,100659.78
2023-04-24T04:52:14.169Z,100663.36
2023-04-24T04:54:41.802Z,100664.41
2023-04-24T04:57:09.657Z,100662.81
2023-04-24T04:59:37.767Z,100662.64
2023-04-24T05:02:07.969Z,100666.52
2023-04-24T05:04:36.849Z,100663.35
2023-04-24T05:07:04.541Z,100665.64
2023-04-24T05:09:33.873Z,100663.88
2023-04-24T05:12:04.438Z,100664.91
2023-04-24T05:14:34.244Z,100660.84
2023-04-24T05:17:01.685Z,100658.52
2023-04-24T05:19:29.421Z,100654.23
2023-04-24T05:21:56.622Z,100651.70
2023-04-24T05:24:24.298Z,100653.05
2023-04-24T05:27:13.221Z,100648.77
2023-04-24T05:29:41.723Z,100647.58
2023-04-24T05:32:10.004Z,100642.66
2023-04-24T05:34:37.400Z,100641.23
2023-04-24T05:37:08.740Z,100640.70
2023-04-24T05:39:37.779Z,100642.43
2023-04-24T05:42:05.562Z,100639.60
2023-04-24T05:44:32.742Z,100640.85
2023-04-24T05:47:02.435Z,100641.77
2023-04-24T05:49:29.981Z,100638.58
2023-04-24T05:58:06.294Z,100637.87
2023-04-24T06:00:35.798Z,100637.02
2023-04-24T06:03:05.727Z,100637.19
2023-04-24T06:05:33.227Z,100635.60
2023-04-24T06:08:00.522Z,100632.36
2023-04-24T06:10:33.005Z,100631.29
2023-04-24T06:13:01.912Z,100630.95
2023-04-24T06:15:31.906Z,100629.09
2023-04-24T06:18:04.845Z,100631.53
2023-04-24T06:20:32.205Z,100628.30
2023-04-24T06:23:00.541Z,100628.93
2023-04-24T06:25:28.794Z,100626.86
2023-04-24T06:27:57.998Z,100629.80
2023-04-24T06:30:25.373Z,100629.04
2023-04-24T06:32:52.771Z,100624.55
2023-04-24T06:35:21.596Z,100623.77
2023-04-24T06:37:48.936Z,100625.56
2023-04-24T06:40:16.206Z,100626.94
2023-04-24T06:42:43.867Z,100626.66
2023-04-24T06:45:11.925Z,100623.91
2023-04-24T06:47:39.494Z,100626.27
2023-04-24T06:50:08.233Z,100623.18
2023-04-24T06:52:35.740Z,100624.66
2023-04-24T06:55:05.499Z,100624.42
2023-04-24T06:57:35.049Z,100623.95
2023-04-24T07:00:02.975Z,100625.04
2023-04-24T07:02:30.920Z,100620.69
2023-04-24T07:04:59.802Z,100621.69
2023-04-24T07:07:30.029Z,100618.64
2023-04-24T07:09:58.932Z,100614.06
2023-04-24T07:12:26.557Z,100616.27
2023-04-24T07:14:53.994Z,100615.36
2023-04-24T07:17:21.607Z,100612.27
2023-04-24T07:19:48.725Z,100606.45
2023-04-24T07:22:18.152Z,100604.08
2023-04-24T07:24:45.795Z,100601.45
2023-04-24T07:27:13.443Z,100596.52
2023-04-24T07:29:41.768Z,100595.28
2023-04-24T07:32:10.400Z,100591.03
2023-04-24T07:34:37.966Z,100592.48
2023-04-24T07:37:05.131Z,100590.05
2023-04-24T07:39:33.294Z,100591.37
2023-04-24T07:42:00.637Z,100590.26
2023-04-24T07:44:27.934Z,100586.45
2023-04-24T07:46:55.255Z,100588.70
2023-04-24T07:49:22.592Z,100582.68
2023-04-24T07:51:50.684Z,100578.83
2023-04-24T07:54:17.923Z,100581.11
2023-04-24T07:56:45.077Z,100575.42
2023-04-24T07:59:12.435Z,100577.65
2023-04-24T08:01:39.785Z,100578.19
2023-04-24T08:04:07.278Z,100578.80
2023-04-24T08:06:35.098Z,100579.77
2023-04-24T08:09:02.354Z,100577.58
2023-04-24T08:11:29.700Z,100571.75
2023-04-24T08:13:57.359Z,100565.83
2023-04-24T08:16:25.688Z,100555.91
2023-04-24T08:18:54.450Z,100555.52
2023-04-24T08:21:22.400Z,100555.56
2023-04-24T08:23:49.763Z,100550.46
2023-04-24T08:26:16.906Z,100547.77
2023-04-24T08:28:44.075Z,100549.70
2023-04-24T08:31:11.474Z,100551.58
2023-04-24T08:33:38.672Z,100551.17
2023-04-24T08:36:06.559Z,100552.84
2023-04-24T08:38:34.082Z,100553.94
2023-04-24T08:41:02.157Z,100550.73
2023-04-24T08:43:29.411Z,100553.05
2023-04-24T08:45:58.887Z,100549.66
2023-04-24T08:48:31.310Z,100545.27
2023-04-24T08:51:00.214Z,100548.31
2023-04-24T08:53:27.653Z,100544.64
2023-04-24T08:55:56.672Z,100550.45
2023-04-24T08:58:28.718Z,100546.89
2023-04-24T09:00:56.862Z,100550.17
2023-04-24T09:03:25.581Z,100548.08
2023-04-24T09:05:53.123Z,100547.82
2023-04-24T09:08:20.767Z,100548.77
2023-04-24T09:10:50.562Z,100551.92
2023-04-24T09:13:20.345Z,100546.89
2023-04-24T09:15:48.195Z,100540.69
2023-04-24T09:18:15.912Z,100540.45
2023-04-24T09:21:07.853Z,100542.48
2023-04-24T09:23:36.358Z,100535.30
2023-04-24T09:26:08.408Z,100537.97
2023-04-24T09:28:37.823Z,100536.10
2023-04-24T09:31:06.181Z,100533.77
2023-04-24T09:33:33.658Z,100533.38
2023-04-24T09:36:01.697Z,100530.89
2023-04-24T09:38:36.329Z,100530.77
2023-04-24T09:41:04.929Z,100535.59
2023-04-24T09:43:32.307Z,100539.02
2023-04-24T09:46:00.419Z,100539.64
2023-04-24T09:48:37.870Z,100534.95
2023-04-24T09:51:08.146Z,100535.77
2023-04-24T09:53:35.260Z,100534.00
2023-04-24T09:56:13.584Z,100527.45
2023-04-24T09:58:40.671Z,100525.56
2023-04-24T10:01:07.771Z,100523.63
2023-04-24T10:03:35.152Z,100520.10
2023-04-24T10:06:02.957Z,100520.52
2023-04-24T10:08:37.095Z,100512.59
2023-04-24T10:11:04.251Z,100514.08
2023-04-24T10:13:31.355Z,100515.60
2023-04-24T10:15:58.605Z,100513.70
2023-04-24T10:18:26.013Z,100507.45
2023-04-24T10:20:53.136Z,100508.11
2023-04-24T10:23:20.445Z,100506.87
2023-04-24T10:25:47.720Z,100506.88
2023-04-24T10:28:15.508Z,100504.53
2023-04-24T10:30:43.843Z,100503.31
2023-04-24T10:33:11.367Z,100501.73
2023-04-24T10:35:46.971Z,100497.67
2023-04-24T10:38:14.748Z,100500.27
2023-04-24T10:40:42.438Z,100500.09
2023-04-24T10:43:12.064Z,100498.84
2023-04-24T10:45:39.767Z,100498.89
2023-04-24T10:48:12.435Z,100491.97
2023-04-24T10:50:54.964Z,100490.84
2023-04-24T10:53:27.995Z,100489.42
2023-04-24T10:56:08.616Z,100486.97
2023-04-24T10:58:41.401Z,100483.08
2023-04-24T11:01:08.670Z,100482.13
2023-04-24T11:03:36.541Z,100485.14
2023-04-24T11:06:09.063Z,100484.46
2023-04-24T11:08:46.189Z,100489.05
2023-04-24T11:11:17.893Z,100490.81
2023-04-24T11:13:57.083Z,100486.45
2023-04-24T11:16:24.766Z,100491.63
2023-04-24T11:19:05.293Z,100487.16
2023-04-24T11:22:04.072Z,100482.04
2023-04-24T11:24:39.262Z,100481.33
2023-04-24T11:27:19.266Z,100476.95
2023-04-24T11:29:46.526Z,100471.59
2023-04-24T11:32:24.643Z,100467.23
2023-04-24T11:34:56.935Z,100462.48
2023-04-24T11:37:29.993Z,100463.14
2023-04-24T11:39:58.742Z,100460.10
2023-04-24T11:42:26.651Z,100458.73
2023-04-24T11:44:54.609Z,100455.48
2023-04-24T11:47:22.188Z,100448.09
2023-04-24T11:49:51.677Z,100447.35
2023-04-24T11:52:19.124Z,100448.77
2023-04-24T11:54:51.298Z,100441.25
2023-04-24T11:57:22.846Z,100440.89
2023-04-24T11:59:50.956Z,100435.69
2023-04-24T12:02:28.468Z,100435.80
2023-04-24T12:04:56.364Z,100435.19
2023-04-24T12:07:24.322Z,100436.68
2023-04-24T12:09:59.300Z,100434.99
2023-04-24T12:12:29.706Z,100436.30
2023-04-24T12:14:58.278Z,100437.38
2023-04-24T12:17:30.439Z,100429.06
2023-04-24T12:20:08.355Z,100426.87
2023-04-24T12:22:49.291Z,100421.65
2023-04-24T12:25:17.723Z,100419.30
2023-04-24T12:27:45.574Z,100414.92
2023-04-24T12:30:16.968Z,100410.13
2023-04-24T12:32:50.794Z,100409.69
2023-04-24T12:35:22.090Z,100405.73
2023-04-24T12:37:49.204Z,100405.68
2023-04-24T12:40:16.956Z,100405.41
2023-04-24T12:42:45.793Z,100408.15
2023-04-24T12:45:15.574Z,100405.66
2023-04-24T12:47:43.229Z,100405.56
2023-04-24T12:50:11.731Z,100412.48
2023-04-24T12:52:38.987Z,100415.61
2023-04-24T12:55:09.193Z,100411.34
2023-04-24T12:57:37.700Z,100408.40
2023-04-24T13:00:07.875Z,100408.77
2023-04-24T13:02:35.265Z,100410.97
2023-04-24T13:05:02.794Z,100410.39
2023-04-24T13:07:30.070Z,100406.63
2023-04-24T13:09:57.163Z,100402.27
2023-04-24T13:12:25.160Z,100400.77
2023-04-24T13:14:52.336Z,100394.94
2023-04-24T13:17:19.661Z,100392.62
2023-04-24T13:19:47.318Z,100391.34
2023-04-24T13:22:14.629Z,100387.70
2023-04-24T13:24:42.790Z,100389.99
2023-04-24T13:27:10.338Z,100385.83
2023-04-24T13:29:38.091Z,100381.65
2023-04-24T13:32:05.294Z,100379.08
2023-04-24T13:34:32.630Z,100377.17
2023-04-24T13:37:00.254Z,100375.33
2023-04-24T13:39:27.632Z,100370.84
2023-04-24T13:41:55.305Z,100371.89
2023-04-24T13:44:22.638Z,100370.19
2023-04-24T13:46:50.749Z,100364.33
2023-04-24T13:49:18.558Z,100370.73
2023-04-24T13:51:46.843Z,100369.64
2023-04-24T13:54:14.257Z,100365.79
2023-04-24T13:56:42.057Z,100359.25
2023-04-24T13:59:09.968Z,100359.08
2023-04-24T14:01:37.162Z,100362.48
2023-04-24T14:04:04.510Z,100355.79
2023-04-24T14:06:32.368Z,100348.41
2023-04-24T14:08:59.518Z,100345.41
2023-04-24T14:11:26.791Z,100340.95
2023-04-24T14:13:54.035Z,100342.36
2023-04-24T14:16:21.199Z,100344.36
2023-04-24T14:18:48.380Z,100341.70
2023-04-24T14:21:15.627Z,100342.05
2023-04-24T14:23:43.039Z,100338.51
2023-04-24T14:26:10.447Z,100338.20
2023-04-24T14:28:37.587Z,100337.52
2023-04-24T14:31:04.785Z,100341.33
2023-04-24T14:33:32.163Z,100338.23
2023-04-24T14:35:59.783Z,100337.65
2023-04-24T14:38:27.210Z,100337.25
2023-04-24T14:43:24.633Z,100345.49
2023-04-24T14:45:52.196Z,100344.08
2023-04-24T14:48:19.909Z,100344.04
2023-04-24T14:50:47.484Z,100345.77
2023-04-24T14:53:15.602Z,100345.90
2023-04-24T14:55:42.757Z,100343.20
2023-04-24T14:58:10.092Z,100341.16
2023-04-24T15:00:37.349Z,100340.05
2023-04-24T15:03:05.102Z,100335.17
2023-04-24T15:05:32.729Z,100335.47
2023-04-24T15:08:00.170Z,100334.88
2023-04-24T15:10:27.675Z,100334.27
2023-04-24T15:12:55.393Z,100329.94
2023-04-24T15:15:23.261Z,100326.84
2023-04-24T15:17:51.288Z,100328.38
2023-04-24T15:20:19.310Z,100331.33
2023-04-24T15:22:47.173Z,100327.34
2023-04-24T15:25:15.036Z,100328.52
2023-04-24T15:27:43.776Z,100325.08
2023-04-24T15:30:11.702Z,100323.90
2023-04-24T15:32:39.333Z,100321.67
2023-04-24T15:35:09.111Z,100319.25
2023-04-24T15:37:39.210Z,100314.14
2023-04-24T15:40:08.927Z,100312.23
2023-04-24T15:42:36.966Z,100309.97
2023-04-24T15:45:05.152Z,100308.42
2023-04-24T15:47:33.529Z,100308.10
2023-04-24T15:50:00.819Z,100308.67
2023-04-24T15:52:28.506Z,100310.88
2023-04-24T15:54:55.883Z,100311.10
2023-04-24T15:57:23.527Z,100307.41
2023-04-24T15:59:51.253Z,100302.16
2023-04-24T16:02:21.478Z,100308.42
2023-04-24T16:04:50.347Z,100307.91
2023-04-24T16:07:18.483Z,100309.02
2023-04-24T16:09:45.920Z,100312.81
2023-04-24T16:12:13.577Z,100313.27
2023-04-24T16:14:42.589Z,100313.34
2023-04-24T16:17:13.003Z,100314.86
2023-04-24T16:19:43.164Z,100313.54
2023-04-24T16:22:13.903Z,100311.76
2023-04-24T16:24:44.967Z,100309.02
2023-04-24T16:27:16.501Z,100306.86
2023-04-24T16:29:49.148Z,100307.14
2023-04-24T16:32:21.189Z,100312.73
2023-04-24T16:34:52.931Z,100314.69
2023-04-24T16:37:22.506Z,100313.63
2023-04-24T16:39:51.995Z,100315.23
2023-04-24T16:42:23.058Z,100316.94
2023-04-24T16:44:53.984Z,100318.41
2023-04-24T16:47:25.245Z,100322.70
2023-04-24T16:49:56.041Z,100320.90
2023-04-24T16:52:27.008Z,100325.30
2023-04-24T16:54:57.487Z,100324.91
2023-04-24T16:57:27.961Z,100329.98
2023-04-24T16:59:59.155Z,100331.73
2023-04-24T17:02:29.622Z,100333.62
2023-04-24T17:04:59.159Z,100333.75
2023-04-24T17:07:29.970Z,100333.55
2023-04-24T17:10:04.256Z,100333.49
2023-04-24T17:18:42.262Z,100330.55
2023-04-24T17:21:09.583Z,100331.39
2023-04-24T17:23:38.372Z,100334.44
2023-04-24T17:26:06.119Z,100336.25
2023-04-24T17:28:33.725Z,100334.73
2023-04-24T17:31:00.880Z,100336.92
2023-04-24T17:33:28.827Z,100340.60
2023-04-24T17:35:59.152Z,100338.39
2023-04-24T17:38:26.490Z,100342.23
2023-04-24T17:40:54.237Z,100346.91
2023-04-24T17:43:21.395Z,100345.23
2023-04-24T17:45:50.672Z,100347.70
2023-04-24T17:48:19.092Z,100348.05
2023-04-24T17:50:46.642Z,100348.75
2023-04-24T17:53:14.092Z,100349.94
2023-04-24T17:55:43.917Z,100350.21
2023-04-24T17:58:13.770Z,100349.04
2023-04-24T18:00:41.734Z,100348.34
2023-04-24T18:03:11.489Z,100346.02
2023-04-24T18:05:39.426Z,100347.29
2023-04-24T18:08:06.919Z,100343.81
2023-04-24T18:10:37.056Z,100346.68
2023-04-24T18:13:05.010Z,100343.85
2023-04-24T18:15:32.673Z,100344.23
2023-04-24T18:18:00.254Z,100339.30
2023-04-24T18:20:27.785Z,100336.80
2023-04-24T18:22:55.149Z,100338.91
2023-04-24T18:25:27.118Z,100338.02
2023-04-24T18:27:55.479Z,100337.86
2023-04-24T18:30:25.570Z,100337.20
2023-04-24T18:32:53.592Z,100337.23
2023-04-24T18:35:21.382Z,100342.77
2023-04-24T18:37:49.127Z,100341.95
2023-04-24T18:40:16.864Z,100343.77
2023-04-24T18:42:44.227Z,100336.58
2023-04-24T18:45:14.620Z,100338.44
2023-04-24T18:47:43.776Z,100333.04
2023-04-24T18:50:12.764Z,100335.55
2023-04-24T18:52:42.034Z,100333.94
2023-04-24T18:55:10.207Z,100337.84
2023-04-24T18:57:37.368Z,100338.61
2023-04-24T19:00:06.340Z,100336.55
2023-04-24T19:02:34.844Z,100336.10
2023-04-24T19:05:03.131Z,100332.80
2023-04-24T19:07:30.461Z,100330.86
2023-04-24T19:09:57.556Z,100331.21
2023-04-24T19:12:24.799Z,100329.06
2023-04-24T19:14:52.762Z,100325.84
2023-04-24T19:17:24.530Z,100330.05
2023-04-24T19:19:52.350Z,100326.34
2023-04-24T19:22:20.626Z,100324.35
2023-04-24T19:24:47.845Z,100326.79
2023-04-24T19:27:15.100Z,100321.95
2023-04-24T19:29:42.255Z,100324.93
2023-04-24T19:32:09.509Z,100324.41
2023-04-24T19:34:38.377Z,100322.50
2023-04-24T19:37:07.988Z,100320.40
2023-04-24T19:39:35.067Z,100318.66
2023-04-24T19:42:05.717Z,100316.70
2023-04-24T19:44:34.781Z,100318.80
2023-04-24T19:47:01.973Z,100319.65
2023-04-24T19:49:30.360Z,100321.20
2023-04-24T19:51:57.435Z,100321.20
2023-04-24T19:54:25.297Z,100318.75
2023-04-24T19:56:52.301Z,100313.10
2023-04-24T19:59:19.439Z,100313.85
2023-04-24T20:01:47.121Z,100314.77
2023-04-24T20:04:14.555Z,100312.27
2023-04-24T20:06:41.892Z,100316.52
2023-04-24T20:09:08.996Z,100310.52
2023-04-24T20:11:36.733Z,100310.02
2023-04-24T20:14:03.958Z,100314.45
2023-04-24T20:16:31.455Z,100311.48
2023-04-24T20:18:58.963Z,100312.01
2023-04-24T20:21:26.857Z,100308.27
2023-04-24T20:23:54.068Z,100305.02
2023-04-24T20:26:21.650Z,100302.14
2023-04-24T20:28:50.204Z,100301.26
2023-04-24T20:31:17.892Z,100300.20
2023-04-24T20:33:45.688Z,100297.92
2023-04-24T20:36:12.776Z,100296.01
2023-04-24T20:38:39.861Z,100292.85
2023-04-24T20:41:08.995Z,100292.84
2023-04-24T20:43:36.571Z,100296.53
2023-04-24T20:46:04.298Z,100294.21
2023-04-24T20:48:31.598Z,100290.70
2023-04-24T20:51:02.064Z,100289.66
2023-04-24T20:53:29.157Z,100288.95
2023-04-24T20:55:56.309Z,100290.89
2023-04-24T20:58:24.010Z,100289.80
2023-04-24T21:00:53.008Z,100290.46
2023-04-24T21:03:20.258Z,100286.02
2023-04-24T21:05:47.527Z,100285.48
2023-04-24T21:08:14.659Z,100285.34
2023-04-24T21:10:41.927Z,100285.36
2023-04-24T21:13:09.184Z,100282.35
2023-04-24T21:15:36.794Z,100285.00
2023-04-24T21:18:04.279Z,100286.05
2023-04-24T21:20:31.344Z,100281.37
2023-04-24T21:26:40.660Z,100278.23
2023-04-24T21:29:07.713Z,100274.88
2023-04-24T21:31:35.381Z,100274.02
2023-04-24T21:34:04.072Z,100273.23
2023-04-24T21:36:32.716Z,100268.77
2023-04-24T21:39:00.311Z,100269.34
2023-04-24T21:41:27.454Z,100271.07
2023-04-24T21:43:55.071Z,100268.70
2023-04-24T21:46:22.667Z,100266.48
2023-04-24T21:48:50.143Z,100268.68
2023-04-24T21:51:17.686Z,100268.19
2023-04-24T21:53:45.071Z,100270.53
2023-04-24T21:56:12.704Z,100272.13
2023-04-24T21:58:40.064Z,100270.61
2023-04-24T22:01:07.356Z,100268.70
2023-04-24T22:03:34.847Z,100262.42
2023-04-24T22:06:02.348Z,100264.77
2023-04-24T22:08:29.683Z,100259.09
2023-04-24T22:10:56.869Z,100258.53
2023-04-24T22:13:24.400Z,100257.66
2023-04-24T22:15:51.782Z,100256.54
2023-04-24T22:18:19.235Z,100260.59
2023-04-24T22:20:46.892Z,100258.45
2023-04-24T22:23:14.227Z,100257.04
2023-04-24T22:25:41.678Z,100252.42
2023-04-24T22:28:09.033Z,100248.35
2023-04-24T22:30:37.328Z,100251.86
2023-04-24T22:33:05.098Z,100245.48
2023-04-24T22:35:32.629Z,100247.42
2023-04-24T22:38:00.185Z,100244.20
2023-04-24T22:40:27.358Z,100242.05
2023-04-24T22:42:54.588Z,100242.09
2023-04-24T22:45:24.407Z,100238.95
2023-04-24T22:47:52.195Z,100238.62
2023-04-24T22:50:19.951Z,100230.01
2023-04-24T22:52:47.287Z,100225.80
2023-04-24T22:55:14.535Z,100223.52
2023-04-24T22:57:42.028Z,100222.99
2023-04-24T23:00:12.013Z,100218.05
2023-04-24T23:02:39.462Z,100219.31
2023-04-24T23:05:07.331Z,100214.73
2023-04-24T23:07:35.404Z,100214.21
2023-04-24T23:10:03.528Z,100211.73
2023-04-24T23:12:31.137Z,100213.49
2023-04-24T23:14:58.698Z,100211.04
2023-04-24T23:17:25.862Z,100209.65
2023-04-24T23:19:53.000Z,100209.50
2023-04-24T23:22:20.248Z,100203.71
2023-04-24T23:24:47.494Z,100209.73
2023-04-24T23:27:14.757Z,100207.10
2023-04-24T23:29:42.105Z,100205.87
2023-04-24T23:32:09.399Z,100206.08
2023-04-24T23:34:39.067Z,100205.77
2023-04-24T23:37:06.940Z,100200.13
2023-04-24T23:39:34.601Z,100200.31
2023-04-24T23:42:02.472Z,100198.20
2023-04-24T23:44:30.043Z,100198.58
2023-04-24T23:46:59.326Z,100195.79
2023-04-24T23:49:26.984Z,100190.68
2023-04-24T23:51:54.237Z,100187.30
2023-04-24T23:54:21.826Z,100187.47
2023-04-24T23:56:49.355Z,100186.78
2023-04-24T23:59:20.189Z,100183.83
